sensor_id;sensor_type;location;lat;lon;timestamp;P1;durP1;ratioP1;P2;durP2;ratioP2
2438;SDS011;14509;47.992;7.848;2023-04-21T00:01:30;2.38;;;2.17;;
2438;SDS011;14509;47.992;7.848;2023-04-21T00:03:33;2.00;;;1.90;;
2438;SDS011;14509;47.992;7.848;2023-04-21T00:05:37;2.20;;;2.00;;
2438;SDS011;14509;47.992;7.848;2023-04-21T00:07:41;2.25;;;2.05;;
2438;SDS011;14509;47.992;7.848;2023-04-21T00:09:43;4.22;;;2.90;;
2438;SDS011;14509;47.992;7.848;2023-04-21T00:11:45;2.92;;;2.72;;
2438;SDS011;14509;47.992;7.848;2023-04-21T00:13:47;3.42;;;2.53;;
2438;SDS011;14509;47.992;7.848;2023-04-21T00:15:49;2.30;;;2.10;;
2438;SDS011;14509;47.992;7.848;2023-04-21T00:17:53;3.60;;;2.15;;
2438;SDS011;14509;47.992;7.848;2023-04-21T00:19:54;2.22;;;2.05;;
2438;SDS011;14509;47.992;7.848;2023-04-21T00:21:57;3.70;;;2.55;;
2438;SDS011;14509;47.992;7.848;2023-04-21T00:24:00;2.35;;;1.85;;
2438;SDS011;14509;47.992;7.848;2023-04-21T00:26:02;2.70;;;2.50;;
2438;SDS011;14509;47.992;7.848;2023-04-21T00:28:04;2.05;;;1.85;;
2438;SDS011;14509;47.992;7.848;2023-04-21T00:30:06;2.47;;;2.20;;
2438;SDS011;14509;47.992;7.848;2023-04-21T00:32:10;2.35;;;2.15;;
2438;SDS011;14509;47.992;7.848;2023-04-21T00:34:13;3.85;;;2.30;;
2438;SDS011;14509;47.992;7.848;2023-04-21T00:36:15;2.13;;;1.85;;
2438;SDS011;14509;47.992;7.848;2023-04-21T00:38:17;2.50;;;1.95;;
2438;SDS011;14509;47.992;7.848;2023-04-21T00:40:19;1.88;;;1.77;;
2438;SDS011;14509;47.992;7.848;2023-04-21T00:42:21;1.60;;;1.50;;
2438;SDS011;14509;47.992;7.848;2023-04-21T00:44:23;2.20;;;2.00;;
2438;SDS011;14509;47.992;7.848;2023-04-21T00:46:25;2.58;;;2.00;;
2438;SDS011;14509;47.992;7.848;2023-04-21T00:48:28;3.20;;;2.47;;
2438;SDS011;14509;47.992;7.848;2023-04-21T00:50:31;2.70;;;2.50;;
2438;SDS011;14509;47.992;7.848;2023-04-21T00:52:33;2.53;;;2.33;;
2438;SDS011;14509;47.992;7.848;2023-04-21T00:54:36;2.20;;;2.00;;
2438;SDS011;14509;47.992;7.848;2023-04-21T00:56:39;2.58;;;2.38;;
2438;SDS011;14509;47.992;7.848;2023-04-21T00:58:41;2.58;;;2.05;;
2438;SDS011;14509;47.992;7.848;2023-04-21T01:00:44;2.53;;;2.33;;
2438;SDS011;14509;47.992;7.848;2023-04-21T01:02:46;2.38;;;2.10;;
2438;SDS011;14509;47.992;7.848;2023-04-21T01:04:48;1.88;;;1.70;;
2438;SDS011;14509;47.992;7.848;2023-04-21T01:06:52;2.47;;;2.28;;
2438;SDS011;14509;47.992;7.848;2023-04-21T01:08:54;2.67;;;2.40;;
2438;SDS011;14509;47.992;7.848;2023-04-21T01:10:57;2.55;;;2.35;;
2438;SDS011;14509;47.992;7.848;2023-04-21T01:12:59;2.63;;;2.42;;
2438;SDS011;14509;47.992;7.848;2023-04-21T01:15:00;2.50;;;2.10;;
2438;SDS011;14509;47.992;7.848;2023-04-21T01:17:03;3.80;;;2.05;;
2438;SDS011;14509;47.992;7.848;2023-04-21T01:19:06;2.30;;;2.05;;
2438;SDS011;14509;47.992;7.848;2023-04-21T01:21:08;2.20;;;2.10;;
2438;SDS011;14509;47.992;7.848;2023-04-21T01:23:13;4.07;;;2.42;;
2438;SDS011;14509;47.992;7.848;2023-04-21T01:25:17;2.90;;;2.70;;
2438;SDS011;14509;47.992;7.848;2023-04-21T01:27:21;2.53;;;2.30;;
2438;SDS011;14509;47.992;7.848;2023-04-21T01:29:27;3.05;;;2.35;;
2438;SDS011;14509;47.992;7.848;2023-04-21T01:31:33;3.45;;;2.80;;
2438;SDS011;14509;47.992;7.848;2023-04-21T01:33:35;2.75;;;2.35;;
2438;SDS011;14509;47.992;7.848;2023-04-21T01:35:37;3.47;;;2.70;;
2438;SDS011;14509;47.992;7.848;2023-04-21T01:37:40;2.50;;;2.40;;
2438;SDS011;14509;47.992;7.848;2023-04-21T01:39:45;3.42;;;2.75;;
2438;SDS011;14509;47.992;7.848;2023-04-21T01:41:51;2.65;;;2.13;;
2438;SDS011;14509;47.992;7.848;2023-04-21T01:43:54;2.30;;;2.10;;
2438;SDS011;14509;47.992;7.848;2023-04-21T01:45:57;2.50;;;2.30;;
2438;SDS011;14509;47.992;7.848;2023-04-21T01:47:59;4.20;;;2.58;;
2438;SDS011;14509;47.992;7.848;2023-04-21T01:50:02;3.33;;;2.45;;
2438;SDS011;14509;47.992;7.848;2023-04-21T01:52:04;2.72;;;2.53;;
2438;SDS011;14509;47.992;7.848;2023-04-21T01:54:06;2.67;;;2.47;;
2438;SDS011;14509;47.992;7.848;2023-04-21T01:56:11;2.50;;;2.30;;
2438;SDS011;14509;47.992;7.848;2023-04-21T01:58:14;4.78;;;2.80;;
2438;SDS011;14509;47.992;7.848;2023-04-21T02:00:16;2.97;;;2.65;;
2438;SDS011;14509;47.992;7.848;2023-04-21T02:02:18;2.58;;;2.38;;
2438;SDS011;14509;47.992;7.848;2023-04-21T02:04:20;5.60;;;2.10;;
2438;SDS011;14509;47.992;7.848;2023-04-21T02:06:22;2.95;;;2.75;;
2438;SDS011;14509;47.992;7.848;2023-04-21T02:08:24;4.07;;;2.72;;
2438;SDS011;14509;47.992;7.848;2023-04-21T02:10:26;3.47;;;2.60;;
2438;SDS011;14509;47.992;7.848;2023-04-21T02:12:29;3.13;;;2.60;;
2438;SDS011;14509;47.992;7.848;2023-04-21T02:14:31;2.97;;;2.63;;
2438;SDS011;14509;47.992;7.848;2023-04-21T02:16:33;3.58;;;3.28;;
2438;SDS011;14509;47.992;7.848;2023-04-21T02:18:35;2.40;;;2.20;;
2438;SDS011;14509;47.992;7.848;2023-04-21T02:20:39;2.65;;;2.45;;
2438;SDS011;14509;47.992;7.848;2023-04-21T02:22:41;3.10;;;2.55;;
2438;SDS011;14509;47.992;7.848;2023-04-21T02:24:43;2.65;;;2.45;;
2438;SDS011;14509;47.992;7.848;2023-04-21T02:26:45;2.67;;;2.42;;
2438;SDS011;14509;47.992;7.848;2023-04-21T02:28:49;2.58;;;2.35;;
2438;SDS011;14509;47.992;7.848;2023-04-21T02:30:51;2.72;;;2.53;;
2438;SDS011;14509;47.992;7.848;2023-04-21T02:32:53;3.20;;;2.70;;
2438;SDS011;14509;47.992;7.848;2023-04-21T02:34:54;2.40;;;2.20;;
2438;SDS011;14509;47.992;7.848;2023-04-21T02:36:57;3.85;;;2.55;;
2438;SDS011;14509;47.992;7.848;2023-04-21T02:38:59;3.55;;;2.38;;
2438;SDS011;14509;47.992;7.848;2023-04-21T02:41:04;2.55;;;2.28;;
2438;SDS011;14509;47.992;7.848;2023-04-21T02:43:07;2.92;;;2.50;;
2438;SDS011;14509;47.992;7.848;2023-04-21T02:45:11;2.70;;;2.45;;
2438;SDS011;14509;47.992;7.848;2023-04-21T02:47:13;4.40;;;3.33;;
2438;SDS011;14509;47.992;7.848;2023-04-21T02:49:16;2.95;;;2.72;;
2438;SDS011;14509;47.992;7.848;2023-04-21T02:51:18;3.10;;;2.60;;
2438;SDS011;14509;47.992;7.848;2023-04-21T02:53:20;3.83;;;2.45;;
2438;SDS011;14509;47.992;7.848;2023-04-21T02:55:22;5.07;;;3.10;;
2438;SDS011;14509;47.992;7.848;2023-04-21T02:57:25;3.40;;;2.67;;
2438;SDS011;14509;47.992;7.848;2023-04-21T02:59:26;2.90;;;2.60;;
2438;SDS011;14509;47.992;7.848;2023-04-21T03:01:30;3.45;;;2.80;;
2438;SDS011;14509;47.992;7.848;2023-04-21T03:03:34;4.60;;;2.15;;
2438;SDS011;14509;47.992;7.848;2023-04-21T03:05:36;2.65;;;2.45;;
2438;SDS011;14509;47.992;7.848;2023-04-21T03:07:39;3.05;;;2.72;;
2438;SDS011;14509;47.992;7.848;2023-04-21T03:09:41;3.30;;;3.00;;
2438;SDS011;14509;47.992;7.848;2023-04-21T03:11:43;4.60;;;3.20;;
2438;SDS011;14509;47.992;7.848;2023-04-21T03:13:45;3.08;;;2.65;;
2438;SDS011;14509;47.992;7.848;2023-04-21T03:15:47;4.78;;;2.65;;
2438;SDS011;14509;47.992;7.848;2023-04-21T03:17:51;2.47;;;2.20;;
2438;SDS011;14509;47.992;7.848;2023-04-21T03:19:56;3.10;;;2.80;;
2438;SDS011;14509;47.992;7.848;2023-04-21T03:21:58;2.72;;;2.47;;
2438;SDS011;14509;47.992;7.848;2023-04-21T03:24:00;2.47;;;2.10;;
2438;SDS011;14509;47.992;7.848;2023-04-21T03:26:05;2.55;;;2.30;;
2438;SDS011;14509;47.992;7.848;2023-04-21T03:28:08;3.83;;;2.92;;
2438;SDS011;14509;47.992;7.848;2023-04-21T03:30:11;3.72;;;2.90;;
2438;SDS011;14509;47.992;7.848;2023-04-21T03:32:13;2.95;;;2.75;;
2438;SDS011;14509;47.992;7.848;2023-04-21T03:34:16;2.35;;;2.15;;
2438;SDS011;14509;47.992;7.848;2023-04-21T03:36:19;5.32;;;3.13;;
2438;SDS011;14509;47.992;7.848;2023-04-21T03:38:21;3.70;;;3.40;;
2438;SDS011;14509;47.992;7.848;2023-04-21T03:40:23;4.70;;;3.20;;
2438;SDS011;14509;47.992;7.848;2023-04-21T03:42:25;2.65;;;2.45;;
2438;SDS011;14509;47.992;7.848;2023-04-21T03:44:30;3.40;;;2.90;;
2438;SDS011;14509;47.992;7.848;2023-04-21T03:46:34;3.50;;;2.90;;
2438;SDS011;14509;47.992;7.848;2023-04-21T03:48:36;2.45;;;2.25;;
2438;SDS011;14509;47.992;7.848;2023-04-21T03:50:40;2.95;;;2.72;;
2438;SDS011;14509;47.992;7.848;2023-04-21T03:52:42;5.07;;;4.18;;
2438;SDS011;14509;47.992;7.848;2023-04-21T03:54:43;3.22;;;2.35;;
2438;SDS011;14509;47.992;7.848;2023-04-21T03:56:45;4.40;;;2.63;;
2438;SDS011;14509;47.992;7.848;2023-04-21T03:58:47;3.40;;;2.70;;
2438;SDS011;14509;47.992;7.848;2023-04-21T04:00:49;2.72;;;2.53;;
2438;SDS011;14509;47.992;7.848;2023-04-21T04:02:51;2.47;;;2.22;;
2438;SDS011;14509;47.992;7.848;2023-04-21T04:04:53;2.50;;;2.30;;
2438;SDS011;14509;47.992;7.848;2023-04-21T04:06:56;3.08;;;2.20;;
2438;SDS011;14509;47.992;7.848;2023-04-21T04:08:58;3.40;;;2.95;;
2438;SDS011;14509;47.992;7.848;2023-04-21T04:11:01;2.08;;;1.88;;
2438;SDS011;14509;47.992;7.848;2023-04-21T04:13:03;3.00;;;2.58;;
2438;SDS011;14509;47.992;7.848;2023-04-21T04:15:06;2.88;;;2.28;;
2438;SDS011;14509;47.992;7.848;2023-04-21T04:17:08;2.70;;;2.45;;
2438;SDS011;14509;47.992;7.848;2023-04-21T04:19:10;4.13;;;2.97;;
2438;SDS011;14509;47.992;7.848;2023-04-21T04:21:12;3.53;;;2.42;;
2438;SDS011;14509;47.992;7.848;2023-04-21T04:23:16;3.45;;;3.15;;
2438;SDS011;14509;47.992;7.848;2023-04-21T04:25:18;3.30;;;3.00;;
2438;SDS011;14509;47.992;7.848;2023-04-21T04:27:20;2.75;;;2.55;;
2438;SDS011;14509;47.992;7.848;2023-04-21T04:29:22;3.95;;;3.20;;
2438;SDS011;14509;47.992;7.848;2023-04-21T04:31:24;4.90;;;3.58;;
2438;SDS011;14509;47.992;7.848;2023-04-21T04:33:28;2.75;;;2.55;;
2438;SDS011;14509;47.992;7.848;2023-04-21T04:35:30;2.60;;;2.40;;
2438;SDS011;14509;47.992;7.848;2023-04-21T04:37:34;2.78;;;2.55;;
2438;SDS011;14509;47.992;7.848;2023-04-21T04:39:37;4.22;;;2.95;;
2438;SDS011;14509;47.992;7.848;2023-04-21T04:41:39;3.38;;;2.58;;
2438;SDS011;14509;47.992;7.848;2023-04-21T04:43:42;2.58;;;2.38;;
2438;SDS011;14509;47.992;7.848;2023-04-21T04:45:44;4.43;;;3.80;;
2438;SDS011;14509;47.992;7.848;2023-04-21T04:47:45;8.75;;;3.55;;
2438;SDS011;14509;47.992;7.848;2023-04-21T04:49:48;2.88;;;2.58;;
2438;SDS011;14509;47.992;7.848;2023-04-21T04:51:49;2.40;;;2.20;;
2438;SDS011;14509;47.992;7.848;2023-04-21T04:53:52;3.97;;;2.95;;
2438;SDS011;14509;47.992;7.848;2023-04-21T04:55:55;4.70;;;2.50;;
2438;SDS011;14509;47.992;7.848;2023-04-21T04:57:58;2.70;;;2.50;;
2438;SDS011;14509;47.992;7.848;2023-04-21T05:00:00;3.03;;;2.70;;
2438;SDS011;14509;47.992;7.848;2023-04-21T05:02:02;2.80;;;2.58;;
2438;SDS011;14509;47.992;7.848;2023-04-21T05:04:04;2.75;;;2.55;;
2438;SDS011;14509;47.992;7.848;2023-04-21T05:06:06;2.55;;;2.33;;
2438;SDS011;14509;47.992;7.848;2023-04-21T05:08:09;2.65;;;2.28;;
2438;SDS011;14509;47.992;7.848;2023-04-21T05:10:10;3.22;;;2.80;;
2438;SDS011;14509;47.992;7.848;2023-04-21T05:12:14;3.35;;;2.97;;
2438;SDS011;14509;47.992;7.848;2023-04-21T05:14:16;2.70;;;2.50;;
2438;SDS011;14509;47.992;7.848;2023-04-21T05:16:18;2.50;;;2.25;;
2438;SDS011;14509;47.992;7.848;2023-04-21T05:18:20;7.63;;;3.10;;
2438;SDS011;14509;47.992;7.848;2023-04-21T05:20:21;3.10;;;2.83;;
2438;SDS011;14509;47.992;7.848;2023-04-21T05:22:23;4.00;;;3.47;;
2438;SDS011;14509;47.992;7.848;2023-04-21T05:24:26;3.08;;;2.85;;
2438;SDS011;14509;47.992;7.848;2023-04-21T05:26:28;3.20;;;2.47;;
2438;SDS011;14509;47.992;7.848;2023-04-21T05:28:32;2.95;;;2.75;;
2438;SDS011;14509;47.992;7.848;2023-04-21T05:30:35;2.38;;;2.17;;
2438;SDS011;14509;47.992;7.848;2023-04-21T05:32:36;4.22;;;2.25;;
2438;SDS011;14509;47.992;7.848;2023-04-21T05:34:38;4.43;;;3.33;;
2438;SDS011;14509;47.992;7.848;2023-04-21T05:36:40;4.18;;;2.78;;
2438;SDS011;14509;47.992;7.848;2023-04-21T05:38:42;2.40;;;2.20;;
2438;SDS011;14509;47.992;7.848;2023-04-21T05:40:51;2.40;;;1.80;;
2438;SDS011;14509;47.992;7.848;2023-04-21T05:42:54;3.47;;;3.17;;
2438;SDS011;14509;47.992;7.848;2023-04-21T05:44:57;5.03;;;2.80;;
2438;SDS011;14509;47.992;7.848;2023-04-21T05:46:59;3.20;;;2.92;;
2438;SDS011;14509;47.992;7.848;2023-04-21T05:49:01;3.17;;;2.60;;
2438;SDS011;14509;47.992;7.848;2023-04-21T05:51:07;2.58;;;2.38;;
2438;SDS011;14509;47.992;7.848;2023-04-21T05:53:09;7.28;;;2.35;;
2438;SDS011;14509;47.992;7.848;2023-04-21T05:55:11;10.10;;;2.95;;
2438;SDS011;14509;47.992;7.848;2023-04-21T05:57:13;2.95;;;2.42;;
2438;SDS011;14509;47.992;7.848;2023-04-21T05:59:16;2.13;;;2.03;;
2438;SDS011;14509;47.992;7.848;2023-04-21T06:01:20;2.85;;;2.50;;
2438;SDS011;14509;47.992;7.848;2023-04-21T06:03:22;3.13;;;2.92;;
2438;SDS011;14509;47.992;7.848;2023-04-21T06:05:24;2.70;;;2.50;;
2438;SDS011;14509;47.992;7.848;2023-04-21T06:07:25;7.22;;;2.95;;
2438;SDS011;14509;47.992;7.848;2023-04-21T06:09:27;3.47;;;2.83;;
2438;SDS011;14509;47.992;7.848;2023-04-21T06:11:29;4.55;;;3.75;;
2438;SDS011;14509;47.992;7.848;2023-04-21T06:13:33;4.97;;;3.38;;
2438;SDS011;14509;47.992;7.848;2023-04-21T06:15:35;3.70;;;3.03;;
2438;SDS011;14509;47.992;7.848;2023-04-21T06:17:38;2.70;;;2.45;;
2438;SDS011;14509;47.992;7.848;2023-04-21T06:19:40;4.00;;;2.78;;
2438;SDS011;14509;47.992;7.848;2023-04-21T06:21:42;3.22;;;2.92;;
2438;SDS011;14509;47.992;7.848;2023-04-21T06:23:44;2.78;;;2.47;;
2438;SDS011;14509;47.992;7.848;2023-04-21T06:25:46;3.50;;;3.20;;
2438;SDS011;14509;47.992;7.848;2023-04-21T06:27:48;4.03;;;3.10;;
2438;SDS011;14509;47.992;7.848;2023-04-21T06:29:52;3.13;;;2.92;;
2438;SDS011;14509;47.992;7.848;2023-04-21T06:31:55;4.30;;;3.97;;
2438;SDS011;14509;47.992;7.848;2023-04-21T06:33:58;3.10;;;2.78;;
2438;SDS011;14509;47.992;7.848;2023-04-21T06:36:00;6.25;;;3.22;;
2438;SDS011;14509;47.992;7.848;2023-04-21T06:38:02;4.05;;;3.70;;
2438;SDS011;14509;47.992;7.848;2023-04-21T06:40:04;2.80;;;2.50;;
2438;SDS011;14509;47.992;7.848;2023-04-21T06:42:06;3.75;;;2.67;;
2438;SDS011;14509;47.992;7.848;2023-04-21T06:44:15;3.72;;;3.45;;
2438;SDS011;14509;47.992;7.848;2023-04-21T06:46:17;4.18;;;3.78;;
2438;SDS011;14509;47.992;7.848;2023-04-21T06:48:19;4.10;;;3.80;;
2438;SDS011;14509;47.992;7.848;2023-04-21T06:50:22;5.33;;;3.90;;
2438;SDS011;14509;47.992;7.848;2023-04-21T06:52:24;3.60;;;3.25;;
2438;SDS011;14509;47.992;7.848;2023-04-21T06:54:26;4.38;;;3.05;;
2438;SDS011;14509;47.992;7.848;2023-04-21T06:56:28;7.93;;;3.38;;
2438;SDS011;14509;47.992;7.848;2023-04-21T06:58:30;6.90;;;4.03;;
2438;SDS011;14509;47.992;7.848;2023-04-21T07:00:32;3.85;;;3.20;;
2438;SDS011;14509;47.992;7.848;2023-04-21T07:02:34;4.43;;;3.30;;
2438;SDS011;14509;47.992;7.848;2023-04-21T07:04:36;5.00;;;3.50;;
2438;SDS011;14509;47.992;7.848;2023-04-21T07:06:39;3.10;;;2.80;;
2438;SDS011;14509;47.992;7.848;2023-04-21T07:08:42;3.27;;;2.97;;
2438;SDS011;14509;47.992;7.848;2023-04-21T07:10:44;3.65;;;2.92;;
2438;SDS011;14509;47.992;7.848;2023-04-21T07:12:46;3.50;;;2.90;;
2438;SDS011;14509;47.992;7.848;2023-04-21T07:14:48;4.00;;;3.63;;
2438;SDS011;14509;47.992;7.848;2023-04-21T07:16:50;5.27;;;3.67;;
2438;SDS011;14509;47.992;7.848;2023-04-21T07:18:52;4.90;;;3.67;;
2438;SDS011;14509;47.992;7.848;2023-04-21T07:20:54;4.13;;;3.67;;
2438;SDS011;14509;47.992;7.848;2023-04-21T07:22:57;5.77;;;3.20;;
2438;SDS011;14509;47.992;7.848;2023-04-21T07:24:59;4.23;;;3.60;;
2438;SDS011;14509;47.992;7.848;2023-04-21T07:27:01;5.33;;;4.27;;
2438;SDS011;14509;47.992;7.848;2023-04-21T07:29:03;3.90;;;3.60;;
2438;SDS011;14509;47.992;7.848;2023-04-21T07:31:04;6.17;;;4.40;;
2438;SDS011;14509;47.992;7.848;2023-04-21T07:33:06;6.50;;;4.60;;
2438;SDS011;14509;47.992;7.848;2023-04-21T07:35:09;5.77;;;5.17;;
2438;SDS011;14509;47.992;7.848;2023-04-21T07:37:11;6.05;;;5.45;;
2438;SDS011;14509;47.992;7.848;2023-04-21T07:39:14;7.68;;;5.95;;
2438;SDS011;14509;47.992;7.848;2023-04-21T07:41:16;7.57;;;6.88;;
2438;SDS011;14509;47.992;7.848;2023-04-21T07:43:21;7.65;;;5.60;;
2438;SDS011;14509;47.992;7.848;2023-04-21T07:45:24;7.53;;;5.33;;
2438;SDS011;14509;47.992;7.848;2023-04-21T07:47:26;6.93;;;6.20;;
2438;SDS011;14509;47.992;7.848;2023-04-21T07:49:28;7.40;;;5.90;;
2438;SDS011;14509;47.992;7.848;2023-04-21T07:51:30;6.13;;;5.27;;
2438;SDS011;14509;47.992;7.848;2023-04-21T07:53:32;10.97;;;6.07;;
2438;SDS011;14509;47.992;7.848;2023-04-21T07:55:36;4.70;;;4.17;;
2438;SDS011;14509;47.992;7.848;2023-04-21T07:57:38;5.70;;;5.20;;
2438;SDS011;14509;47.992;7.848;2023-04-21T07:59:42;9.10;;;6.43;;
2438;SDS011;14509;47.992;7.848;2023-04-21T08:01:44;5.40;;;4.67;;
2438;SDS011;14509;47.992;7.848;2023-04-21T08:03:47;7.23;;;6.30;;
2438;SDS011;14509;47.992;7.848;2023-04-21T08:05:49;9.80;;;7.00;;
2438;SDS011;14509;47.992;7.848;2023-04-21T08:07:51;7.97;;;6.67;;
2438;SDS011;14509;47.992;7.848;2023-04-21T08:09:53;9.80;;;6.43;;
2438;SDS011;14509;47.992;7.848;2023-04-21T08:11:56;6.83;;;6.00;;
2438;SDS011;14509;47.992;7.848;2023-04-21T08:13:58;7.17;;;6.20;;
2438;SDS011;14509;47.992;7.848;2023-04-21T08:16:02;8.27;;;7.33;;
2438;SDS011;14509;47.992;7.848;2023-04-21T08:18:05;8.33;;;7.20;;
2438;SDS011;14509;47.992;7.848;2023-04-21T08:20:07;7.80;;;6.90;;
2438;SDS011;14509;47.992;7.848;2023-04-21T08:22:10;9.27;;;7.00;;
2438;SDS011;14509;47.992;7.848;2023-04-21T08:24:12;7.80;;;6.33;;
2438;SDS011;14509;47.992;7.848;2023-04-21T08:26:14;7.47;;;6.13;;
2438;SDS011;14509;47.992;7.848;2023-04-21T08:28:19;7.43;;;6.10;;
2438;SDS011;14509;47.992;7.848;2023-04-21T08:30:21;6.13;;;5.53;;
2438;SDS011;14509;47.992;7.848;2023-04-21T08:32:23;5.90;;;5.00;;
2438;SDS011;14509;47.992;7.848;2023-04-21T08:34:25;6.40;;;4.57;;
2438;SDS011;14509;47.992;7.848;2023-04-21T08:36:27;6.67;;;5.47;;
2438;SDS011;14509;47.992;7.848;2023-04-21T08:38:30;4.80;;;4.30;;
2438;SDS011;14509;47.992;7.848;2023-04-21T08:40:35;5.20;;;4.70;;
2438;SDS011;14509;47.992;7.848;2023-04-21T08:42:38;5.23;;;4.70;;
2438;SDS011;14509;47.992;7.848;2023-04-21T08:44:42;6.60;;;5.23;;
2438;SDS011;14509;47.992;7.848;2023-04-21T08:46:44;5.47;;;4.40;;
2438;SDS011;14509;47.992;7.848;2023-04-21T08:48:48;5.07;;;4.57;;
2438;SDS011;14509;47.992;7.848;2023-04-21T08:50:50;7.20;;;5.10;;
2438;SDS011;14509;47.992;7.848;2023-04-21T08:52:53;7.50;;;4.90;;
2438;SDS011;14509;47.992;7.848;2023-04-21T08:54:56;7.33;;;5.07;;
2438;SDS011;14509;47.992;7.848;2023-04-21T08:56:58;5.00;;;4.10;;
2438;SDS011;14509;47.992;7.848;2023-04-21T08:59:02;4.23;;;3.83;;
2438;SDS011;14509;47.992;7.848;2023-04-21T09:01:07;5.30;;;4.00;;
2438;SDS011;14509;47.992;7.848;2023-04-21T09:03:10;4.90;;;4.43;;
2438;SDS011;14509;47.992;7.848;2023-04-21T09:05:12;6.27;;;4.50;;
2438;SDS011;14509;47.992;7.848;2023-04-21T09:07:29;4.97;;;4.43;;
2438;SDS011;14509;47.992;7.848;2023-04-21T09:09:32;4.43;;;3.97;;
2438;SDS011;14509;47.992;7.848;2023-04-21T09:11:35;4.73;;;4.33;;
2438;SDS011;14509;47.992;7.848;2023-04-21T09:13:37;5.17;;;4.20;;
2438;SDS011;14509;47.992;7.848;2023-04-21T09:15:39;5.67;;;5.10;;
2438;SDS011;14509;47.992;7.848;2023-04-21T09:17:43;4.80;;;4.40;;
2438;SDS011;14509;47.992;7.848;2023-04-21T09:19:46;5.03;;;4.53;;
2438;SDS011;14509;47.992;7.848;2023-04-21T09:21:48;5.77;;;5.10;;
2438;SDS011;14509;47.992;7.848;2023-04-21T09:23:51;4.63;;;3.80;;
2438;SDS011;14509;47.992;7.848;2023-04-21T09:25:54;4.40;;;4.00;;
2438;SDS011;14509;47.992;7.848;2023-04-21T09:27:56;5.50;;;4.67;;
2438;SDS011;14509;47.992;7.848;2023-04-21T09:30:01;5.60;;;4.63;;
2438;SDS011;14509;47.992;7.848;2023-04-21T09:32:05;5.43;;;4.67;;
2438;SDS011;14509;47.992;7.848;2023-04-21T09:34:18;5.47;;;4.87;;
2438;SDS011;14509;47.992;7.848;2023-04-21T09:36:24;6.27;;;4.43;;
2438;SDS011;14509;47.992;7.848;2023-04-21T09:38:27;5.30;;;4.47;;
2438;SDS011;14509;47.992;7.848;2023-04-21T09:40:29;5.70;;;4.70;;
2438;SDS011;14509;47.992;7.848;2023-04-21T09:42:32;5.47;;;4.43;;
2438;SDS011;14509;47.992;7.848;2023-04-21T09:44:35;6.17;;;5.47;;
2438;SDS011;14509;47.992;7.848;2023-04-21T09:46:37;7.30;;;5.50;;
2438;SDS011;14509;47.992;7.848;2023-04-21T09:48:43;6.10;;;5.50;;
2438;SDS011;14509;47.992;7.848;2023-04-21T09:50:47;11.07;;;7.07;;
2438;SDS011;14509;47.992;7.848;2023-04-21T09:52:51;6.63;;;5.30;;
2438;SDS011;14509;47.992;7.848;2023-04-21T09:54:56;9.37;;;6.83;;
2438;SDS011;14509;47.992;7.848;2023-04-21T09:57:01;9.27;;;7.27;;
2438;SDS011;14509;47.992;7.848;2023-04-21T09:59:06;6.73;;;6.13;;
2438;SDS011;14509;47.992;7.848;2023-04-21T10:01:12;7.73;;;6.30;;
2438;SDS011;14509;47.992;7.848;2023-04-21T10:03:15;7.07;;;6.37;;
2438;SDS011;14509;47.992;7.848;2023-04-21T10:05:21;7.83;;;6.10;;
2438;SDS011;14509;47.992;7.848;2023-04-21T10:07:24;11.27;;;6.17;;
2438;SDS011;14509;47.992;7.848;2023-04-21T10:09:30;7.33;;;6.37;;
2438;SDS011;14509;47.992;7.848;2023-04-21T10:11:37;8.10;;;6.00;;
2438;SDS011;14509;47.992;7.848;2023-04-21T10:13:40;6.47;;;5.77;;
2438;SDS011;14509;47.992;7.848;2023-04-21T10:15:42;6.70;;;5.60;;
2438;SDS011;14509;47.992;7.848;2023-04-21T10:17:44;9.53;;;6.57;;
2438;SDS011;14509;47.992;7.848;2023-04-21T10:19:48;7.60;;;5.23;;
2438;SDS011;14509;47.992;7.848;2023-04-21T10:21:54;7.53;;;5.97;;
2438;SDS011;14509;47.992;7.848;2023-04-21T10:23:58;5.93;;;5.33;;
2438;SDS011;14509;47.992;7.848;2023-04-21T10:26:00;8.30;;;6.20;;
2438;SDS011;14509;47.992;7.848;2023-04-21T10:28:04;6.60;;;5.47;;
2438;SDS011;14509;47.992;7.848;2023-04-21T10:30:19;7.10;;;6.20;;
2438;SDS011;14509;47.992;7.848;2023-04-21T10:34:48;7.10;;;5.73;;
2438;SDS011;14509;47.992;7.848;2023-04-21T10:39:27;8.10;;;6.50;;
2438;SDS011;14509;47.992;7.848;2023-04-21T10:41:32;9.03;;;8.03;;
2438;SDS011;14509;47.992;7.848;2023-04-21T10:43:41;7.17;;;6.47;;
2438;SDS011;14509;47.992;7.848;2023-04-21T10:45:44;7.17;;;6.47;;
2438;SDS011;14509;47.992;7.848;2023-04-21T10:47:46;10.10;;;7.13;;
2438;SDS011;14509;47.992;7.848;2023-04-21T10:49:50;10.97;;;6.90;;
2438;SDS011;14509;47.992;7.848;2023-04-21T10:52:01;8.23;;;7.37;;
2438;SDS011;14509;47.992;7.848;2023-04-21T10:54:07;10.70;;;7.57;;
2438;SDS011;14509;47.992;7.848;2023-04-21T10:56:16;9.20;;;6.77;;
2438;SDS011;14509;47.992;7.848;2023-04-21T10:58:18;10.87;;;7.80;;
2438;SDS011;14509;47.992;7.848;2023-04-21T11:00:23;9.93;;;7.37;;
2438;SDS011;14509;47.992;7.848;2023-04-21T11:02:26;7.90;;;7.10;;
2438;SDS011;14509;47.992;7.848;2023-04-21T11:04:28;7.83;;;6.73;;
2438;SDS011;14509;47.992;7.848;2023-04-21T11:06:32;10.00;;;8.10;;
2438;SDS011;14509;47.992;7.848;2023-04-21T11:08:33;8.87;;;7.73;;
2438;SDS011;14509;47.992;7.848;2023-04-21T11:10:55;7.87;;;6.60;;
2438;SDS011;14509;47.992;7.848;2023-04-21T11:12:59;9.10;;;7.77;;
2438;SDS011;14509;47.992;7.848;2023-04-21T11:15:02;8.13;;;7.43;;
2438;SDS011;14509;47.992;7.848;2023-04-21T11:17:09;8.40;;;6.40;;
2438;SDS011;14509;47.992;7.848;2023-04-21T11:19:13;9.10;;;8.03;;
2438;SDS011;14509;47.992;7.848;2023-04-21T11:21:16;8.53;;;7.50;;
2438;SDS011;14509;47.992;7.848;2023-04-21T11:23:21;7.53;;;6.40;;
2438;SDS011;14509;47.992;7.848;2023-04-21T11:25:23;9.47;;;7.13;;
2438;SDS011;14509;47.992;7.848;2023-04-21T11:27:26;7.57;;;6.47;;
2438;SDS011;14509;47.992;7.848;2023-04-21T11:29:31;7.77;;;6.97;;
2438;SDS011;14509;47.992;7.848;2023-04-21T11:31:34;9.90;;;7.33;;
2438;SDS011;14509;47.992;7.848;2023-04-21T11:33:39;8.60;;;7.60;;
2438;SDS011;14509;47.992;7.848;2023-04-21T11:35:43;10.60;;;7.07;;
2438;SDS011;14509;47.992;7.848;2023-04-21T11:37:46;8.03;;;6.80;;
2438;SDS011;14509;47.992;7.848;2023-04-21T11:39:56;6.97;;;6.27;;
2438;SDS011;14509;47.992;7.848;2023-04-21T11:41:59;8.50;;;7.23;;
2438;SDS011;14509;47.992;7.848;2023-04-21T11:44:07;10.80;;;7.57;;
2438;SDS011;14509;47.992;7.848;2023-04-21T11:46:15;9.20;;;8.13;;
2438;SDS011;14509;47.992;7.848;2023-04-21T11:48:18;7.43;;;6.70;;
2438;SDS011;14509;47.992;7.848;2023-04-21T11:50:30;9.03;;;6.90;;
2438;SDS011;14509;47.992;7.848;2023-04-21T11:52:33;6.17;;;5.57;;
2438;SDS011;14509;47.992;7.848;2023-04-21T11:54:39;9.73;;;7.47;;
2438;SDS011;14509;47.992;7.848;2023-04-21T11:56:42;7.77;;;6.97;;
2438;SDS011;14509;47.992;7.848;2023-04-21T11:58:48;8.80;;;7.30;;
2438;SDS011;14509;47.992;7.848;2023-04-21T12:00:52;10.00;;;9.00;;
2438;SDS011;14509;47.992;7.848;2023-04-21T12:02:55;8.67;;;6.83;;
2438;SDS011;14509;47.992;7.848;2023-04-21T12:04:58;8.83;;;6.87;;
2438;SDS011;14509;47.992;7.848;2023-04-21T12:07:02;8.47;;;7.37;;
2438;SDS011;14509;47.992;7.848;2023-04-21T12:09:04;9.50;;;8.20;;
2438;SDS011;14509;47.992;7.848;2023-04-21T12:11:06;8.13;;;6.60;;
2438;SDS011;14509;47.992;7.848;2023-04-21T12:13:08;6.83;;;6.13;;
2438;SDS011;14509;47.992;7.848;2023-04-21T12:15:11;8.03;;;6.20;;
2438;SDS011;14509;47.992;7.848;2023-04-21T12:17:16;7.20;;;6.50;;
2438;SDS011;14509;47.992;7.848;2023-04-21T12:19:23;9.13;;;6.93;;
2438;SDS011;14509;47.992;7.848;2023-04-21T12:21:26;6.00;;;5.50;;
2438;SDS011;14509;47.992;7.848;2023-04-21T12:23:28;7.00;;;6.30;;
2438;SDS011;14509;47.992;7.848;2023-04-21T12:25:30;7.43;;;5.83;;
2438;SDS011;14509;47.992;7.848;2023-04-21T12:27:32;8.60;;;5.70;;
2438;SDS011;14509;47.992;7.848;2023-04-21T12:29:34;6.53;;;5.90;;
2438;SDS011;14509;47.992;7.848;2023-04-21T12:31:37;6.73;;;5.30;;
2438;SDS011;14509;47.992;7.848;2023-04-21T12:33:42;8.17;;;5.40;;
2438;SDS011;14509;47.992;7.848;2023-04-21T12:35:46;10.10;;;5.80;;
2438;SDS011;14509;47.992;7.848;2023-04-21T12:37:48;6.33;;;5.27;;